Time;durP1;ratioP1;P1;durP2;ratioP2;P2;SDS_P1;SDS_P2;PMS_P1;PMS_P2;Temp;Humidity;BMP_temperature;BMP_pressure;BME280_temperature;BME280_humidity;BME280_pressure;Samples;Min_cycle;Max_cycle;Signal;HPM_P1;HPM_P2
2021/05/15 00:01:21;;;;;;;4.22;1.20;;;;;;;10.32;82.96;99552.66;5023004;28;20024;-77
2021/05/15 00:03:46;;;;;;;4.85;1.60;;;;;;;10.32;82.75;99522.13;5020361;28;20040;-77
2021/05/15 00:06:12;;;;;;;4.45;1.20;;;;;;;10.32;83.21;99511.03;5050102;28;20508;-77
2021/05/15 00:08:37;;;;;;;5.15;1.00;;;;;;;10.29;83.16;99503.34;5072793;28;20020;-77
2021/05/15 00:11:03;;;;;;;4.57;1.30;;;;;;;10.27;83.01;99503.66;5056277;28;20036;-77
2021/05/15 00:13:28;;;;;;;2.88;1.00;;;;;;;10.28;83.20;99505.31;5034473;28;20033;-77
2021/05/15 00:15:54;;;;;;;4.07;1.08;;;;;;;10.25;83.49;99493.97;5032396;28;20030;-77
2021/05/15 00:18:19;;;;;;;3.28;1.00;;;;;;;10.26;83.20;99487.31;5030940;28;20025;-77
2021/05/15 00:20:45;;;;;;;4.70;1.10;;;;;;;10.22;82.91;99489.06;5041065;28;20025;-77
2021/05/15 00:23:10;;;;;;;4.72;1.30;;;;;;;10.25;82.90;99471.78;5049722;28;20041;-77
2021/05/15 00:25:36;;;;;;;4.82;1.70;;;;;;;10.26;82.83;99473.44;5060525;28;20036;-77
2021/05/15 00:28:01;;;;;;;2.22;0.98;;;;;;;10.25;83.22;99460.66;5040847;28;20029;-77
2021/05/15 00:30:27;;;;;;;2.30;0.90;;;;;;;10.26;82.85;99459.56;5058815;28;20044;-77
2021/05/15 00:32:52;;;;;;;3.70;1.10;;;;;;;10.27;82.75;99458.44;4995046;28;20033;-77
2021/05/15 00:35:18;;;;;;;2.97;1.00;;;;;;;10.26;82.87;99460.38;5032722;28;20091;-77
2021/05/15 00:37:44;;;;;;;4.25;1.10;;;;;;;10.28;82.53;99451.78;5032928;28;20041;-77
2021/05/15 00:40:10;;;;;;;3.35;1.30;;;;;;;10.20;83.01;99442.22;5073275;28;20112;-77
2021/05/15 00:42:36;;;;;;;2.20;0.90;;;;;;;10.22;83.16;99439.09;5024223;28;20036;-77
2021/05/15 00:45:04;;;;;;;4.53;1.48;;;;;;;10.23;83.27;99424.13;5056530;28;20491;-77
2021/05/15 00:47:29;;;;;;;3.72;0.90;;;;;;;10.23;83.24;99411.06;5066109;28;20048;-77
2021/05/15 00:49:55;;;;;;;3.53;1.00;;;;;;;10.21;83.71;99413.31;5021712;28;20071;-76
2021/05/15 00:52:21;;;;;;;4.40;1.42;;;;;;;10.17;83.95;99412.34;5050489;28;20531;-77
2021/05/15 00:54:47;;;;;;;2.67;1.05;;;;;;;10.20;84.13;99402.56;5072679;28;20036;-77
2021/05/15 00:57:12;;;;;;;3.25;1.05;;;;;;;10.17;84.07;99394.84;5038668;28;20166;-77
2021/05/15 00:59:39;;;;;;;3.72;1.13;;;;;;;10.16;84.17;99388.47;5057921;28;20473;-77
2021/05/15 01:02:05;;;;;;;4.35;0.90;;;;;;;10.18;84.31;99377.09;5057999;28;20028;-77
2021/05/15 01:04:30;;;;;;;3.25;0.90;;;;;;;10.19;84.23;99376.75;5035074;28;20040;-77
2021/05/15 01:06:56;;;;;;;1.63;1.05;;;;;;;10.16;84.48;99376.56;5033977;28;20033;-77
2021/05/15 01:09:21;;;;;;;4.15;0.95;;;;;;;10.16;84.61;99362.69;5023676;28;20082;-77
2021/05/15 01:11:48;;;;;;;2.60;1.00;;;;;;;10.11;85.17;99354.50;5022767;28;20025;-78
2021/05/15 01:14:13;;;;;;;2.70;0.90;;;;;;;10.12;84.98;99347.84;5052757;28;20036;-77
2021/05/15 01:16:39;;;;;;;3.85;0.98;;;;;;;10.11;85.09;99341.47;5045407;28;20030;-76
2021/05/15 01:19:04;;;;;;;2.58;0.90;;;;;;;10.13;85.29;99339.19;5056107;28;20028;-77
2021/05/15 01:21:30;;;;;;;3.00;0.80;;;;;;;10.11;85.48;99354.50;5034222;28;20408;-76
2021/05/15 01:23:56;;;;;;;1.85;0.80;;;;;;;10.09;85.36;99356.81;5044430;28;20029;-77
2021/05/15 01:26:27;;;;;;;0.98;0.60;;;;;;;10.05;86.25;99323.31;5031137;28;20416;-76
2021/05/15 01:28:54;;;;;;;2.25;0.90;;;;;;;10.09;86.10;99309.66;5052394;28;20033;-76
2021/05/15 01:31:19;;;;;;;5.63;1.38;;;;;;;10.03;86.50;99311.75;5033629;28;20477;-77
2021/05/15 01:33:45;;;;;;;2.75;0.73;;;;;;;10.04;86.18;99300.31;5058653;28;20041;-77
2021/05/15 01:36:10;;;;;;;1.52;0.68;;;;;;;10.04;86.16;99299.50;5069981;28;20079;-77
2021/05/15 01:38:36;;;;;;;2.55;0.60;;;;;;;10.03;86.34;99295.09;5055613;28;20068;-77
2021/05/15 01:41:06;;;;;;;2.78;0.70;;;;;;;9.97;86.81;99290.81;5032202;28;20021;-77
2021/05/15 01:43:32;;;;;;;1.92;0.75;;;;;;;9.95;86.72;99291.16;5029705;28;20041;-78
2021/05/15 01:45:58;;;;;;;1.30;0.70;;;;;;;9.96;86.35;99278.91;5025571;28;20028;-77
2021/05/15 01:48:23;;;;;;;2.33;0.60;;;;;;;9.99;86.63;99269.13;5035748;28;20025;-77
2021/05/15 01:51:01;;;;;;;1.02;0.50;;;;;;;9.97;86.81;99258.38;5059583;28;20025;-77
2021/05/15 01:53:28;;;;;;;1.25;0.57;;;;;;;9.96;86.75;99251.16;5056713;28;20032;-77
2021/05/15 01:55:54;;;;;;;1.58;0.70;;;;;;;9.97;86.57;99260.31;5057321;28;20056;-80
2021/05/15 01:58:19;;;;;;;1.63;0.55;;;;;;;9.92;87.08;99263.22;5046475;28;20035;-78
2021/05/15 02:00:45;;;;;;;1.10;0.60;;;;;;;9.96;87.05;99267.81;5067713;28;20034;-77
2021/05/15 02:03:10;;;;;;;1.45;0.60;;;;;;;9.95;87.10;99268.97;5038278;28;20036;-77
2021/05/15 02:05:36;;;;;;;1.75;0.57;;;;;;;9.94;86.96;99264.53;5058838;28;20028;-77
2021/05/15 02:08:01;;;;;;;0.70;0.40;;;;;;;9.95;87.21;99277.28;5022847;28;20076;-77
2021/05/15 02:10:27;;;;;;;1.63;0.50;;;;;;;9.97;87.23;99274.16;5070039;28;20033;-77
2021/05/15 02:12:53;;;;;;;1.35;0.65;;;;;;;9.93;86.43;99274.00;5032441;28;20029;-77
2021/05/15 02:15:18;;;;;;;1.38;0.50;;;;;;;9.94;86.07;99267.31;5031857;28;20026;-77
2021/05/15 02:17:44;;;;;;;2.13;1.05;;;;;;;9.93;86.85;99260.13;5042795;28;20086;-77
2021/05/15 02:20:10;;;;;;;0.98;0.45;;;;;;;9.95;85.58;99255.09;5037849;28;20029;-77
2021/05/15 02:22:35;;;;;;;0.85;0.50;;;;;;;9.97;86.00;99254.75;5032960;28;20048;-77
2021/05/15 02:25:01;;;;;;;1.48;0.40;;;;;;;10.00;85.35;99254.94;5022917;28;20036;-77
2021/05/15 02:27:26;;;;;;;0.93;0.50;;;;;;;9.99;85.83;99253.31;5050612;28;20033;-77
2021/05/15 02:29:52;;;;;;;2.05;0.52;;;;;;;10.00;86.45;99251.34;5028198;28;20020;-76
2021/05/15 02:32:17;;;;;;;1.77;0.50;;;;;;;10.02;85.99;99243.53;5037588;28;20037;-77
2021/05/15 02:34:43;;;;;;;2.17;0.40;;;;;;;10.03;85.65;99246.00;5048956;28;20032;-77
2021/05/15 02:37:08;;;;;;;1.83;0.50;;;;;;;10.00;85.93;99241.09;5023996;28;20049;-77
2021/05/15 02:39:34;;;;;;;0.63;0.52;;;;;;;10.02;86.82;99243.53;5019262;28;20533;-77
2021/05/15 02:42:00;;;;;;;2.05;0.47;;;;;;;10.04;86.14;99241.25;5035307;28;20035;-77
2021/05/15 02:44:25;;;;;;;0.57;0.50;;;;;;;10.06;85.96;99237.03;5023735;28;20033;-78
2021/05/15 02:46:51;;;;;;;1.30;0.40;;;;;;;10.02;85.38;99222.16;5036874;28;20626;-77
2021/05/15 02:49:16;;;;;;;0.60;0.40;;;;;;;10.07;86.09;99235.88;5070144;28;20037;-77
2021/05/15 02:51:42;;;;;;;1.35;0.50;;;;;;;10.05;85.38;99238.13;4991278;28;20025;-77
2021/05/15 02:54:07;;;;;;;1.20;0.50;;;;;;;10.09;85.63;99234.75;5003939;28;20095;-77
2021/05/15 02:56:34;;;;;;;1.45;0.52;;;;;;;10.13;84.62;99227.41;5061295;28;20389;-77
2021/05/15 02:59:00;;;;;;;1.20;0.47;;;;;;;10.10;85.64;99219.72;5017831;28;20029;-76
2021/05/15 03:01:25;;;;;;;1.15;0.40;;;;;;;10.13;85.18;99222.66;5031391;28;20028;-77
2021/05/15 03:03:51;;;;;;;1.17;0.40;;;;;;;10.16;85.58;99221.22;5027960;28;20030;-77
2021/05/15 03:06:16;;;;;;;1.85;0.60;;;;;;;10.19;85.18;99221.38;5019150;28;20044;-77
2021/05/15 03:08:41;;;;;;;2.10;0.57;;;;;;;10.19;85.17;99226.09;5048010;28;20048;-77
2021/05/15 03:11:07;;;;;;;1.65;0.57;;;;;;;10.17;85.08;99232.00;5046393;28;20034;-77
2021/05/15 03:13:32;;;;;;;0.77;0.43;;;;;;;10.19;85.32;99220.56;5016820;28;20405;-77
2021/05/15 03:15:58;;;;;;;1.48;0.40;;;;;;;10.19;85.20;99220.56;5068207;28;20033;-77
2021/05/15 03:18:23;;;;;;;1.80;0.50;;;;;;;10.20;84.24;99231.34;5051337;28;20398;-77
2021/05/15 03:20:49;;;;;;;1.33;0.40;;;;;;;10.21;85.10;99229.38;5046616;28;20028;-77
2021/05/15 03:23:14;;;;;;;1.42;0.70;;;;;;;10.21;84.97;99227.41;5009117;28;20041;-77
2021/05/15 03:25:40;;;;;;;1.50;0.50;;;;;;;10.22;84.66;99228.22;5046408;28;20026;-77
2021/05/15 03:28:06;;;;;;;2.15;0.68;;;;;;;10.25;85.57;99230.38;5055493;28;20441;-77
2021/05/15 03:30:31;;;;;;;2.22;0.60;;;;;;;10.24;85.57;99221.22;5021479;28;20036;-77
2021/05/15 03:32:57;;;;;;;1.25;0.57;;;;;;;10.27;85.36;99231.69;5051342;28;20037;-77
2021/05/15 03:35:22;;;;;;;1.70;0.47;;;;;;;10.26;84.70;99224.50;5051554;28;20029;-77
2021/05/15 03:37:48;;;;;;;2.35;0.68;;;;;;;10.28;84.67;99222.25;5051651;28;20124;-78
2021/05/15 03:40:14;;;;;;;1.33;0.50;;;;;;;10.28;83.70;99224.22;5034919;28;20124;-77
2021/05/15 03:42:39;;;;;;;1.40;0.40;;;;;;;10.31;84.80;99228.28;5031654;28;20076;-77
2021/05/15 03:45:05;;;;;;;3.10;0.68;;;;;;;10.32;84.36;99232.72;5047112;28;20022;-77
2021/05/15 03:47:31;;;;;;;1.67;0.60;;;;;;;10.33;84.21;99235.16;5053838;28;20059;-77
2021/05/15 03:49:57;;;;;;;1.13;0.70;;;;;;;10.33;84.34;99232.38;5046941;28;20036;-77
2021/05/15 03:52:23;;;;;;;2.20;0.60;;;;;;;10.32;84.59;99222.41;5049508;28;20033;-77
2021/05/15 03:54:48;;;;;;;4.43;0.57;;;;;;;10.31;83.99;99223.56;5019430;28;20025;-77
2021/05/15 03:57:13;;;;;;;3.30;0.73;;;;;;;10.31;84.36;99222.72;5045473;28;20658;-76
2021/05/15 03:59:39;;;;;;;3.30;0.80;;;;;;;10.32;83.99;99219.66;5019587;28;20551;-77
2021/05/15 04:02:05;;;;;;;1.48;0.50;;;;;;;10.28;83.99;99218.69;5007210;28;20694;-77
2021/05/15 04:04:31;;;;;;;1.50;0.70;;;;;;;10.29;84.09;99220.28;5033815;28;20064;-77
2021/05/15 04:06:56;;;;;;;1.17;0.50;;;;;;;10.23;83.04;99211.28;5041623;28;20032;-76
2021/05/15 04:09:22;;;;;;;2.25;0.60;;;;;;;10.24;83.67;99206.53;5071059;28;20036;-78
2021/05/15 04:11:47;;;;;;;2.60;0.80;;;;;;;10.22;83.33;99211.59;5006753;28;20178;-77
2021/05/15 04:19:26;;;;;;;3.00;0.70;;;;;;;10.13;83.18;99221.84;5031754;28;20024;-77
2021/05/15 04:21:52;;;;;;;2.13;0.88;;;;;;;10.09;83.39;99223.66;5035624;28;20489;-77
2021/05/15 04:24:17;;;;;;;1.90;0.60;;;;;;;10.06;83.60;99220.38;5021283;28;20047;-77
2021/05/15 04:26:43;;;;;;;2.67;0.52;;;;;;;10.02;83.51;99224.09;5034492;28;20477;-77
2021/05/15 04:29:08;;;;;;;3.33;0.60;;;;;;;10.02;83.89;99232.44;4996120;28;20026;-77
2021/05/15 04:31:34;;;;;;;3.35;0.80;;;;;;;9.99;83.95;99230.31;5033000;28;20029;-76
2021/05/15 04:33:59;;;;;;;4.53;0.90;;;;;;;9.97;84.13;99227.03;5051046;28;20036;-76
2021/05/15 04:36:25;;;;;;;3.60;0.88;;;;;;;9.94;84.16;99242.34;5037944;28;20082;-77
2021/05/15 04:38:52;;;;;;;4.22;1.00;;;;;;;9.94;83.84;99236.81;5006646;28;20444;-77
2021/05/15 04:41:19;;;;;;;2.92;0.70;;;;;;;9.92;83.81;99238.25;5035149;28;20078;-76
2021/05/15 04:43:45;;;;;;;5.10;1.02;;;;;;;9.90;84.20;99246.91;5050863;28;20033;-77
2021/05/15 04:46:10;;;;;;;4.45;1.10;;;;;;;9.87;84.39;99242.00;5050662;28;20504;-76
2021/05/15 04:48:38;;;;;;;5.57;1.05;;;;;;;9.85;83.83;99234.00;5043189;28;20025;-77
2021/05/15 04:51:03;;;;;;;5.13;1.27;;;;;;;9.86;84.65;99237.59;5036322;28;20033;-76
2021/05/15 04:53:30;;;;;;;5.60;1.23;;;;;;;9.87;84.46;99230.09;5038514;28;20436;-77
2021/05/15 04:55:55;;;;;;;3.83;1.10;;;;;;;9.86;84.09;99229.25;5014402;28;20041;-76
2021/05/15 04:58:21;;;;;;;7.47;1.63;;;;;;;9.87;84.29;99228.16;5037612;28;20108;-76
2021/05/15 05:00:47;;;;;;;3.97;1.15;;;;;;;9.88;84.53;99229.78;5051804;28;20044;-77
2021/05/15 05:03:16;;;;;;;8.10;1.85;;;;;;;9.87;84.72;99230.91;5034359;28;20025;-76
2021/05/15 05:05:41;;;;;;;8.57;1.70;;;;;;;9.89;85.75;99239.75;5019534;28;20037;-76
2021/05/15 05:08:07;;;;;;;10.13;1.85;;;;;;;9.91;85.10;99245.75;5052504;28;20039;-76
2021/05/15 05:10:32;;;;;;;4.32;1.58;;;;;;;9.93;84.98;99251.00;5056248;28;20481;-77
2021/05/15 05:13:02;;;;;;;6.97;1.27;;;;;;;9.95;85.39;99248.72;5037949;28;20063;-76
2021/05/15 05:15:28;;;;;;;7.95;1.70;;;;;;;9.97;85.21;99244.50;5033930;28;20036;-76
2021/05/15 05:17:53;;;;;;;7.55;1.70;;;;;;;10.00;86.33;99241.09;5045651;28;20505;-77
2021/05/15 05:20:19;;;;;;;6.95;2.10;;;;;;;10.03;85.77;99251.53;5038881;28;20385;-77
2021/05/15 05:22:44;;;;;;;4.63;1.80;;;;;;;10.06;84.99;99250.88;5052158;28;20074;-77
2021/05/15 05:25:12;;;;;;;12.93;2.13;;;;;;;10.08;85.55;99261.66;5010702;28;20032;-77
2021/05/15 05:27:45;;;;;;;7.22;1.77;;;;;;;10.11;85.66;99252.69;5027430;28;20039;-76
2021/05/15 05:30:11;;;;;;;13.30;2.25;;;;;;;10.13;85.64;99260.69;5066864;28;20040;-77
2021/05/15 05:32:36;;;;;;;11.88;1.80;;;;;;;10.15;85.59;99256.47;5024684;28;20092;-77
2021/05/15 05:35:03;;;;;;;7.97;2.03;;;;;;;10.19;85.78;99256.63;5071881;28;20033;-76
2021/05/15 05:37:28;;;;;;;8.80;2.10;;;;;;;10.22;85.79;99244.88;5035173;28;20048;-77
2021/05/15 05:39:54;;;;;;;12.98;2.60;;;;;;;10.25;86.73;99247.00;5005871;28;20033;-77
2021/05/15 05:42:20;;;;;;;13.52;3.03;;;;;;;10.28;86.24;99257.53;4981356;28;20037;-77
2021/05/15 05:44:46;;;;;;;9.02;1.90;;;;;;;10.29;85.88;99254.41;5057029;28;20625;-76
2021/05/15 05:47:12;;;;;;;10.73;2.17;;;;;;;10.34;85.85;99261.78;5058118;28;20112;-77
2021/05/15 05:49:38;;;;;;;13.45;2.90;;;;;;;10.36;86.88;99261.44;5040988;28;20432;-76
2021/05/15 05:52:04;;;;;;;10.15;3.03;;;;;;;10.39;86.62;99264.41;5038886;28;20044;-77
2021/05/15 05:54:29;;;;;;;14.90;3.03;;;;;;;10.43;86.94;99265.38;5009557;28;20036;-77
2021/05/15 05:56:55;;;;;;;15.88;3.35;;;;;;;10.45;86.37;99260.31;4992554;28;20120;-77
2021/05/15 05:59:20;;;;;;;18.85;3.83;;;;;;;10.48;87.90;99254.13;5023036;28;20051;-76
2021/05/15 06:01:46;;;;;;;20.15;3.83;;;;;;;10.51;86.20;99256.25;5012161;28;20029;-76
2021/05/15 06:04:11;;;;;;;16.08;3.28;;;;;;;10.55;87.15;99266.69;5010546;28;20067;-76
2021/05/15 06:06:37;;;;;;;20.33;3.45;;;;;;;10.57;87.08;99259.69;5069774;28;20029;-77
2021/05/15 06:09:04;;;;;;;20.77;3.90;;;;;;;10.62;87.75;99262.31;5063052;28;20061;-76
2021/05/15 06:11:29;;;;;;;27.98;4.78;;;;;;;10.67;87.64;99259.38;5037000;28;20104;-76
2021/05/15 06:13:55;;;;;;;20.35;3.78;;;;;;;10.71;88.09;99265.09;5062367;28;20557;-77
2021/05/15 06:16:20;;;;;;;21.35;4.00;;;;;;;10.77;87.73;99269.34;5036464;28;20237;-76
2021/05/15 06:18:46;;;;;;;24.00;4.60;;;;;;;10.79;86.99;99264.28;5034938;28;20535;-76
2021/05/15 06:21:11;;;;;;;31.35;5.25;;;;;;;10.85;87.22;99276.06;5028311;28;20029;-76
2021/05/15 06:23:37;;;;;;;19.48;3.53;;;;;;;10.89;85.63;99279.78;5047578;28;20058;-76
2021/05/15 06:26:07;;;;;;;15.63;3.30;;;;;;;10.93;85.09;99287.16;5026054;28;20091;-76
2021/05/15 06:28:33;;;;;;;22.20;4.22;;;;;;;10.99;84.82;99273.94;5028195;28;20045;-76
2021/05/15 06:30:59;;;;;;;25.98;3.92;;;;;;;11.05;84.54;99285.69;5017772;28;20029;-76
2021/05/15 06:33:25;;;;;;;21.05;4.45;;;;;;;11.08;84.50;99285.03;5032970;28;20040;-78
2021/05/15 06:35:50;;;;;;;26.25;4.72;;;;;;;11.12;85.44;99286.84;5036325;28;20757;-76
2021/05/15 06:38:17;;;;;;;24.20;4.50;;;;;;;11.17;84.46;99288.63;5054861;28;20066;-76
2021/05/15 06:40:43;;;;;;;28.00;5.15;;;;;;;11.20;84.68;99276.88;4999778;28;20021;-76
2021/05/15 06:43:08;;;;;;;22.48;4.05;;;;;;;11.25;84.83;99276.69;5034831;28;20083;-76
2021/05/15 06:45:34;;;;;;;24.25;4.82;;;;;;;11.30;84.96;99284.84;5008421;28;20029;-76
2021/05/15 06:47:59;;;;;;;25.00;5.25;;;;;;;11.34;84.59;99288.63;5028579;28;20026;-76
2021/05/15 06:50:25;;;;;;;23.67;5.38;;;;;;;11.41;85.21;99283.38;5021600;28;20067;-76
2021/05/15 06:52:50;;;;;;;26.52;4.55;;;;;;;11.49;84.71;99289.25;5041868;28;20026;-76
2021/05/15 06:55:16;;;;;;;25.30;4.97;;;;;;;11.54;84.48;99294.66;5032758;28;20067;-76
2021/05/15 06:57:41;;;;;;;28.35;5.38;;;;;;;11.63;84.40;99292.66;5014921;28;20033;-76
2021/05/15 07:00:07;;;;;;;27.38;4.72;;;;;;;11.71;83.49;99297.38;5048361;28;20040;-76
2021/05/15 07:02:33;;;;;;;21.80;4.70;;;;;;;11.78;82.80;99308.00;5047805;28;20028;-77
2021/05/15 07:04:59;;;;;;;30.42;5.88;;;;;;;11.85;82.92;99299.97;5022286;28;20112;-76
2021/05/15 07:07:24;;;;;;;29.73;5.55;;;;;;;11.94;82.83;99300.78;5066904;28;20033;-76
2021/05/15 07:09:50;;;;;;;25.58;5.07;;;;;;;12.06;82.73;99311.19;5036787;28;20036;-76
2021/05/15 07:12:16;;;;;;;27.17;4.68;;;;;;;12.18;81.86;99311.34;5003431;28;20025;-76
2021/05/15 07:14:42;;;;;;;25.88;4.75;;;;;;;12.30;82.71;99314.22;4989143;28;20037;-77
2021/05/15 07:17:07;;;;;;;32.85;6.00;;;;;;;12.43;83.24;99311.56;5018882;28;20041;-76
2021/05/15 07:19:33;;;;;;;34.38;5.75;;;;;;;12.56;83.13;99324.41;5039283;28;20496;-76
2021/05/15 07:21:58;;;;;;;28.58;5.60;;;;;;;12.68;82.42;99313.38;5035413;28;20024;-77
2021/05/15 07:24:24;;;;;;;31.60;5.88;;;;;;;12.86;83.25;99318.81;5001703;28;20025;-76
2021/05/15 07:26:49;;;;;;;28.90;4.57;;;;;;;12.92;81.49;99317.47;5038815;28;20032;-77
2021/05/15 07:29:15;;;;;;;28.75;5.60;;;;;;;13.03;81.31;99312.31;5021266;28;20040;-77
2021/05/15 07:31:40;;;;;;;37.55;5.85;;;;;;;13.11;81.92;99317.81;5035988;28;20029;-77
2021/05/15 07:34:06;;;;;;;29.02;5.80;;;;;;;13.19;81.18;99322.50;4988303;28;20438;-76
2021/05/15 07:36:32;;;;;;;28.75;5.15;;;;;;;13.27;79.45;99320.84;4988421;28;20031;-77
2021/05/15 07:38:57;;;;;;;17.02;4.28;;;;;;;13.35;78.61;99319.13;5042828;28;20051;-78
2021/05/15 07:41:25;;;;;;;16.88;3.22;;;;;;;13.42;78.16;99324.97;5054384;28;20031;-77
2021/05/15 07:43:50;;;;;;;19.70;3.30;;;;;;;13.49;77.79;99330.81;4992209;28;20132;-77
2021/05/15 07:46:16;;;;;;;18.25;3.78;;;;;;;13.55;77.83;99317.47;5030344;28;20039;-77
2021/05/15 07:48:42;;;;;;;19.27;4.13;;;;;;;13.62;77.77;99329.72;5049271;28;20045;-77
2021/05/15 07:51:19;;;;;;;21.95;4.88;;;;;;;13.69;78.02;99334.72;5035865;28;20033;-78
2021/05/15 07:53:45;;;;;;;26.45;4.90;;;;;;;13.76;78.06;99323.00;5052391;28;20059;-77
2021/05/15 07:56:11;;;;;;;31.30;5.40;;;;;;;13.82;78.29;99316.06;5068724;28;20036;-78
2021/05/15 07:58:37;;;;;;;22.75;4.68;;;;;;;13.93;77.84;99322.81;5053313;28;20036;-78
2021/05/15 08:01:02;;;;;;;27.13;5.13;;;;;;;14.01;77.73;99333.06;4991830;28;20605;-78
2021/05/15 08:03:28;;;;;;;26.58;5.25;;;;;;;14.11;77.30;99317.84;5032612;28;20033;-78
2021/05/15 08:05:53;;;;;;;34.53;5.85;;;;;;;14.22;77.39;99321.00;5022558;28;20393;-78
2021/05/15 08:08:19;;;;;;;30.55;5.25;;;;;;;14.35;77.22;99313.44;5037860;28;20054;-78
2021/05/15 08:10:44;;;;;;;26.35;5.03;;;;;;;14.44;76.71;99320.56;5006043;28;20028;-77
2021/05/15 08:13:10;;;;;;;33.58;5.47;;;;;;;14.56;76.67;99321.75;5023115;28;20385;-78
2021/05/15 08:15:35;;;;;;;31.40;5.82;;;;;;;14.64;76.52;99329.19;5056157;28;20400;-78
2021/05/15 08:18:01;;;;;;;25.63;4.90;;;;;;;14.72;76.45;99325.47;5017427;28;20389;-79
2021/05/15 08:20:27;;;;;;;28.05;5.50;;;;;;;14.80;76.10;99327.31;5054217;28;20029;-78
2021/05/15 08:22:52;;;;;;;31.58;5.93;;;;;;;14.87;75.84;99324.72;5052629;28;20041;-78
2021/05/15 08:25:19;;;;;;;29.27;5.40;;;;;;;15.00;75.31;99319.94;4975976;28;20040;-78
2021/05/15 08:27:49;;;;;;;30.17;6.15;;;;;;;15.12;75.39;99321.91;5045528;28;20137;-76
2021/05/15 08:30:18;;;;;;;35.13;6.03;;;;;;;15.29;75.50;99332.78;5046915;28;20036;-76
2021/05/15 08:32:44;;;;;;;40.15;6.20;;;;;;;15.44;75.13;99325.66;5019129;28;20029;-74
2021/05/15 08:35:09;;;;;;;31.00;6.50;;;;;;;15.58;74.23;99336.44;5050998;28;20044;-71
2021/05/15 08:37:35;;;;;;;30.33;6.53;;;;;;;15.74;74.02;99325.31;5069364;28;20097;-74
2021/05/15 08:40:01;;;;;;;34.88;7.50;;;;;;;15.91;73.50;99324.16;5031886;28;20032;-74
2021/05/15 08:42:27;;;;;;;35.30;7.03;;;;;;;16.09;73.52;99342.25;5033274;28;20056;-74
2021/05/15 08:44:52;;;;;;;37.03;6.57;;;;;;;16.27;73.03;99337.97;5069194;28;20040;-74
2021/05/15 08:47:18;;;;;;;32.72;6.03;;;;;;;16.44;72.91;99339.59;5054543;28;20025;-74
2021/05/15 08:49:44;;;;;;;31.45;6.22;;;;;;;16.56;72.64;99333.06;5052560;28;20033;-75
2021/05/15 08:52:09;;;;;;;31.67;6.03;;;;;;;16.73;72.16;99334.66;5026235;28;20066;-75
2021/05/15 08:54:35;;;;;;;29.05;5.38;;;;;;;16.86;71.98;99332.59;5024631;28;20037;-74
2021/05/15 08:57:01;;;;;;;27.13;5.90;;;;;;;16.99;71.44;99339.72;5031407;28;20132;-73
2021/05/15 08:59:26;;;;;;;29.30;5.55;;;;;;;17.14;71.84;99344.47;4991761;28;20178;-72
2021/05/15 09:01:53;;;;;;;29.65;5.75;;;;;;;17.27;71.53;99349.94;5055687;28;20025;-72
2021/05/15 09:04:19;;;;;;;36.33;6.03;;;;;;;17.41;71.25;99341.81;5041118;28;20494;-72
2021/05/15 09:06:45;;;;;;;29.02;4.72;;;;;;;17.53;70.91;99352.94;5021201;28;20075;-72
2021/05/15 09:09:10;;;;;;;23.25;5.18;;;;;;;17.65;71.25;99352.78;5038795;28;20032;-73
2021/05/15 09:11:36;;;;;;;37.35;6.22;;;;;;;17.76;70.10;99346.56;5007986;28;20037;-72
2021/05/15 09:14:01;;;;;;;30.80;5.65;;;;;;;17.87;70.05;99353.25;5053347;28;20025;-72
2021/05/15 09:16:27;;;;;;;31.65;5.82;;;;;;;17.95;69.38;99352.19;5037670;28;20017;-72
2021/05/15 09:18:52;;;;;;;29.63;6.15;;;;;;;17.98;69.08;99347.84;5048784;28;20021;-72
2021/05/15 09:21:20;;;;;;;34.08;5.93;;;;;;;18.05;67.94;99350.75;5017713;28;20083;-72
2021/05/15 09:23:46;;;;;;;36.83;6.70;;;;;;;18.05;67.95;99360.03;5045615;28;20071;-72
2021/05/15 09:26:17;;;;;;;29.90;5.88;;;;;;;18.07;67.64;99357.63;5026368;28;20040;-72
2021/05/15 09:28:47;;;;;;;33.58;5.45;;;;;;;18.03;67.41;99359.56;5007853;28;20025;-77
2021/05/15 09:31:26;;;;;;;29.98;5.68;;;;;;;18.00;67.39;99365.94;5021709;28;20022;-77
2021/05/15 09:33:56;;;;;;;29.42;5.25;;;;;;;17.97;67.64;99349.84;5020617;28;20124;-77
2021/05/15 09:36:31;;;;;;;30.45;5.32;;;;;;;17.99;68.03;99355.06;5037174;28;20072;-77
2021/05/15 09:39:03;;;;;;;30.92;6.32;;;;;;;17.96;68.02;99342.56;5025829;28;20071;-79
2021/05/15 09:41:39;;;;;;;26.42;5.70;;;;;;;17.93;67.54;99348.94;5056303;28;20708;-75
2021/05/15 09:44:06;;;;;;;24.83;5.75;;;;;;;17.99;67.83;99353.06;5039108;28;20033;-74
2021/05/15 09:46:33;;;;;;;28.58;5.40;;;;;;;18.07;68.02;99354.81;5003268;28;20091;-79
2021/05/15 09:48:58;;;;;;;28.02;4.90;;;;;;;18.16;68.15;99336.91;5021967;28;20029;-77
2021/05/15 09:51:24;;;;;;;26.35;5.13;;;;;;;18.29;68.14;99341.97;5043462;28;20051;-79
2021/05/15 09:53:49;;;;;;;32.90;5.88;;;;;;;18.45;68.26;99341.06;5023381;28;20032;-79
2021/05/15 09:56:30;;;;;;;25.90;5.20;;;;;;;18.59;68.15;99334.88;5035311;28;20057;-79
2021/05/15 09:58:56;;;;;;;30.27;5.35;;;;;;;18.78;66.38;99328.34;5050844;28;20100;-79
2021/05/15 10:01:24;;;;;;;27.98;5.07;;;;;;;18.95;66.08;99337.06;5022249;28;20490;-79
2021/05/15 10:04:02;;;;;;;24.33;4.20;;;;;;;19.15;65.39;99340.56;5035747;28;20028;-79
2021/05/15 10:06:28;;;;;;;21.70;4.80;;;;;;;19.30;65.21;99335.94;5014129;28;20108;-79
2021/05/15 10:08:53;;;;;;;24.50;5.43;;;;;;;19.42;64.94;99332.91;5018756;28;20057;-79
2021/05/15 10:11:20;;;;;;;27.50;4.85;;;;;;;19.50;64.12;99331.00;5021766;28;20029;-79
2021/05/15 10:13:46;;;;;;;26.73;5.05;;;;;;;19.59;63.97;99316.63;5004755;28;20104;-79
2021/05/15 10:16:11;;;;;;;23.65;4.75;;;;;;;19.61;63.53;99328.28;5021635;28;20095;-80
2021/05/15 10:18:37;;;;;;;27.75;4.32;;;;;;;19.45;62.61;99330.53;5018510;28;20036;-78
2021/05/15 10:21:03;;;;;;;20.48;4.60;;;;;;;19.33;62.75;99332.34;5053330;28;20022;-77
2021/05/15 10:23:36;;;;;;;25.08;4.88;;;;;;;19.23;62.84;99329.44;5022941;28;20642;-77
2021/05/15 10:26:03;;;;;;;23.45;5.05;;;;;;;19.09;62.98;99338.47;5053776;28;20028;-77
2021/05/15 10:28:30;;;;;;;27.35;4.93;;;;;;;18.94;63.18;99335.47;5055914;28;20041;-78
2021/05/15 10:31:22;;;;;;;24.17;4.97;;;;;;;18.96;63.82;99327.44;5031272;28;20063;-77
2021/05/15 10:33:48;;;;;;;32.22;6.30;;;;;;;19.00;64.50;99333.13;5020673;28;20041;-78
2021/05/15 10:36:21;;;;;;;26.77;5.15;;;;;;;19.02;64.45;99341.97;5059839;28;20029;-78
2021/05/15 10:38:47;;;;;;;;;;;;;;;18.97;63.82;99340.31;5037382;28;20045;-78
2021/05/15 10:41:20;;;;;;;23.98;5.07;;;;;;;18.89;64.62;99340.59;5049236;28;20486;-77
2021/05/15 10:43:48;;;;;;;35.60;5.43;;;;;;;18.83;64.18;99356.97;5040011;28;20037;-78
2021/05/15 10:46:24;;;;;;;30.60;5.65;;;;;;;18.91;63.86;99344.63;5038843;28;20021;-79
2021/05/15 10:49:07;;;;;;;35.53;8.65;;;;;;;18.81;63.84;99342.47;5054670;28;20029;-76
2021/05/15 10:51:44;;;;;;;25.58;5.95;;;;;;;18.86;63.83;99338.50;5038723;28;20035;-78
2021/05/15 10:54:11;;;;;;;26.50;6.75;;;;;;;18.90;63.79;99339.41;5052987;28;20148;-78
2021/05/15 10:56:36;;;;;;;23.63;5.68;;;;;;;18.94;63.95;99335.47;5019260;28;20039;-78
2021/05/15 10:59:16;;;;;;;27.95;5.60;;;;;;;18.99;63.63;99320.22;5019191;28;20041;-77
2021/05/15 11:01:52;;;;;;;20.75;4.50;;;;;;;19.07;63.70;99312.72;5023135;28;20028;-78
2021/05/15 11:04:17;;;;;;;20.13;4.85;;;;;;;19.18;63.76;99310.84;5018501;28;20031;-77
2021/05/15 11:06:43;;;;;;;21.98;4.43;;;;;;;19.29;64.13;99305.38;5022733;28;20026;-78
2021/05/15 11:09:08;;;;;;;21.13;4.63;;;;;;;19.41;63.56;99300.28;5060643;28;20083;-78
2021/05/15 11:11:41;;;;;;;24.38;4.55;;;;;;;19.50;63.26;99290.75;5023528;28;20385;-78
2021/05/15 11:14:40;;;;;;;22.88;4.70;;;;;;;19.67;63.01;99306.25;5034697;28;20052;-78
2021/05/15 11:17:16;;;;;;;23.52;3.65;;;;;;;19.78;62.87;99310.00;5004402;28;20512;-78
2021/05/15 11:19:49;;;;;;;20.95;4.07;;;;;;;19.93;62.18;99303.34;5033701;28;20037;-78
2021/05/15 11:22:15;;;;;;;22.42;4.40;;;;;;;19.98;62.18;99313.47;5018701;28;20041;-78
2021/05/15 11:24:50;;;;;;;21.15;4.57;;;;;;;20.05;61.64;99307.88;5032780;28;20056;-78
2021/05/15 11:27:16;;;;;;;16.95;3.95;;;;;;;20.15;61.61;99312.84;5046234;28;20064;-78
2021/05/15 11:29:42;;;;;;;21.73;3.95;;;;;;;20.15;61.50;99298.75;4984497;28;20047;-77
2021/05/15 11:32:12;;;;;;;23.52;4.50;;;;;;;20.17;61.21;99293.53;5033720;28;20443;-78
2021/05/15 11:34:37;;;;;;;19.95;4.03;;;;;;;20.08;61.08;99301.47;5062772;28;20063;-75